sensor_id;sensor_type;location;lat;lon;timestamp;P1;durP1;ratioP1;P2;durP2;ratioP2
53835;SDS011;39737;43.334;21.936;2023-05-10T00:02:19;0.30;;;0.30;;
53835;SDS011;39737;43.334;21.936;2023-05-10T00:05:05;1.35;;;1.25;;
53835;SDS011;39737;43.334;21.936;2023-05-10T00:07:51;1.05;;;0.77;;
53835;SDS011;39737;43.334;21.936;2023-05-10T00:10:37;1.73;;;1.27;;
53835;SDS011;39737;43.334;21.936;2023-05-10T00:13:23;1.80;;;1.17;;
53835;SDS011;39737;43.334;21.936;2023-05-10T00:16:10;1.23;;;1.00;;
53835;SDS011;39737;43.334;21.936;2023-05-10T00:19:00;1.48;;;1.08;;
53835;SDS011;39737;43.334;21.936;2023-05-10T00:21:45;0.90;;;0.80;;
53835;SDS011;39737;43.334;21.936;2023-05-10T00:24:32;0.80;;;0.80;;
53835;SDS011;39737;43.334;21.936;2023-05-10T00:27:20;3.22;;;1.00;;
53835;SDS011;39737;43.334;21.936;2023-05-10T00:30:06;0.98;;;0.88;;
53835;SDS011;39737;43.334;21.936;2023-05-10T00:32:53;0.80;;;0.80;;
53835;SDS011;39737;43.334;21.936;2023-05-10T00:35:39;1.30;;;0.80;;
53835;SDS011;39737;43.334;21.936;2023-05-10T00:38:27;0.93;;;0.85;;
53835;SDS011;39737;43.334;21.936;2023-05-10T00:41:33;1.40;;;1.17;;
53835;SDS011;39737;43.334;21.936;2023-05-10T00:44:21;0.90;;;0.80;;
53835;SDS011;39737;43.334;21.936;2023-05-10T00:47:10;1.90;;;0.90;;
53835;SDS011;39737;43.334;21.936;2023-05-10T00:50:00;1.02;;;0.90;;
53835;SDS011;39737;43.334;21.936;2023-05-10T00:52:46;2.25;;;0.90;;
53835;SDS011;39737;43.334;21.936;2023-05-10T00:55:32;5.65;;;2.10;;
53835;SDS011;39737;43.334;21.936;2023-05-10T00:58:21;4.75;;;1.67;;
53835;SDS011;39737;43.334;21.936;2023-05-10T01:01:09;6.05;;;2.22;;
53835;SDS011;39737;43.334;21.936;2023-05-10T01:03:57;3.63;;;1.50;;
53835;SDS011;39737;43.334;21.936;2023-05-10T01:06:49;0.80;;;0.80;;
53835;SDS011;39737;43.334;21.936;2023-05-10T01:09:35;0.30;;;0.30;;
53835;SDS011;39737;43.334;21.936;2023-05-10T01:12:21;1.10;;;0.80;;
53835;SDS011;39737;43.334;21.936;2023-05-10T01:15:08;0.85;;;0.85;;
53835;SDS011;39737;43.334;21.936;2023-05-10T01:17:56;1.27;;;0.80;;
53835;SDS011;39737;43.334;21.936;2023-05-10T01:20:43;0.70;;;0.70;;
53835;SDS011;39737;43.334;21.936;2023-05-10T01:29:55;0.30;;;0.30;;
53835;SDS011;39737;43.334;21.936;2023-05-10T01:39:26;0.82;;;0.68;;
53835;SDS011;39737;43.334;21.936;2023-05-10T01:42:25;1.88;;;0.82;;
53835;SDS011;39737;43.334;21.936;2023-05-10T01:48:17;1.48;;;1.15;;
53835;SDS011;39737;43.334;21.936;2023-05-10T01:51:04;1.50;;;1.23;;
53835;SDS011;39737;43.334;21.936;2023-05-10T01:53:51;3.08;;;1.13;;
53835;SDS011;39737;43.334;21.936;2023-05-10T01:56:39;1.00;;;1.00;;
53835;SDS011;39737;43.334;21.936;2023-05-10T01:59:28;1.27;;;1.17;;
53835;SDS011;39737;43.334;21.936;2023-05-10T02:02:23;0.90;;;0.90;;
53835;SDS011;39737;43.334;21.936;2023-05-10T02:05:13;1.48;;;0.85;;
53835;SDS011;39737;43.334;21.936;2023-05-10T02:07:59;0.68;;;0.68;;
53835;SDS011;39737;43.334;21.936;2023-05-10T02:10:47;1.20;;;1.10;;
53835;SDS011;39737;43.334;21.936;2023-05-10T02:13:34;1.42;;;1.23;;
53835;SDS011;39737;43.334;21.936;2023-05-10T02:16:21;0.28;;;0.28;;
53835;SDS011;39737;43.334;21.936;2023-05-10T02:19:12;1.00;;;0.88;;
53835;SDS011;39737;43.334;21.936;2023-05-10T02:21:59;0.30;;;0.30;;
53835;SDS011;39737;43.334;21.936;2023-05-10T02:24:46;1.30;;;1.17;;
53835;SDS011;39737;43.334;21.936;2023-05-10T02:27:33;1.20;;;1.10;;
53835;SDS011;39737;43.334;21.936;2023-05-10T02:30:19;2.25;;;1.20;;
53835;SDS011;39737;43.334;21.936;2023-05-10T02:33:07;2.78;;;2.20;;
53835;SDS011;39737;43.334;21.936;2023-05-10T02:35:53;0.60;;;0.60;;
53835;SDS011;39737;43.334;21.936;2023-05-10T02:38:40;1.88;;;1.50;;
53835;SDS011;39737;43.334;21.936;2023-05-10T02:41:26;1.98;;;1.10;;
53835;SDS011;39737;43.334;21.936;2023-05-10T02:44:14;3.22;;;1.60;;
53835;SDS011;39737;43.334;21.936;2023-05-10T02:47:02;0.40;;;0.40;;
53835;SDS011;39737;43.334;21.936;2023-05-10T02:49:51;2.17;;;1.85;;
53835;SDS011;39737;43.334;21.936;2023-05-10T02:52:47;2.40;;;1.98;;
53835;SDS011;39737;43.334;21.936;2023-05-10T02:55:36;2.67;;;1.17;;
53835;SDS011;39737;43.334;21.936;2023-05-10T02:58:23;1.10;;;1.10;;
53835;SDS011;39737;43.334;21.936;2023-05-10T03:01:09;0.30;;;0.30;;
53835;SDS011;39737;43.334;21.936;2023-05-10T03:03:56;0.30;;;0.30;;
53835;SDS011;39737;43.334;21.936;2023-05-10T03:06:43;0.47;;;0.47;;
53835;SDS011;39737;43.334;21.936;2023-05-10T03:09:32;1.23;;;1.08;;
53835;SDS011;39737;43.334;21.936;2023-05-10T03:12:21;1.40;;;1.20;;
53835;SDS011;39737;43.334;21.936;2023-05-10T03:15:14;0.50;;;0.50;;
53835;SDS011;39737;43.334;21.936;2023-05-10T03:18:07;0.30;;;0.30;;
53835;SDS011;39737;43.334;21.936;2023-05-10T03:21:01;0.40;;;0.40;;
53835;SDS011;39737;43.334;21.936;2023-05-10T03:23:52;1.25;;;1.20;;
53835;SDS011;39737;43.334;21.936;2023-05-10T03:26:39;0.50;;;0.50;;
53835;SDS011;39737;43.334;21.936;2023-05-10T03:29:30;0.40;;;0.40;;
53835;SDS011;39737;43.334;21.936;2023-05-10T03:32:16;1.60;;;1.50;;
53835;SDS011;39737;43.334;21.936;2023-05-10T03:35:09;2.63;;;2.00;;
53835;SDS011;39737;43.334;21.936;2023-05-10T03:37:55;0.65;;;0.65;;
53835;SDS011;39737;43.334;21.936;2023-05-10T03:40:42;2.50;;;1.63;;
53835;SDS011;39737;43.334;21.936;2023-05-10T03:43:30;1.65;;;1.38;;
53835;SDS011;39737;43.334;21.936;2023-05-10T03:46:16;3.70;;;1.35;;
53835;SDS011;39737;43.334;21.936;2023-05-10T03:49:03;3.22;;;1.92;;
53835;SDS011;39737;43.334;21.936;2023-05-10T03:51:49;0.95;;;0.65;;
53835;SDS011;39737;43.334;21.936;2023-05-10T03:54:56;0.65;;;0.65;;
53835;SDS011;39737;43.334;21.936;2023-05-10T03:57:42;0.40;;;0.40;;
53835;SDS011;39737;43.334;21.936;2023-05-10T04:00:29;2.90;;;2.10;;
53835;SDS011;39737;43.334;21.936;2023-05-10T04:03:16;2.50;;;1.95;;
53835;SDS011;39737;43.334;21.936;2023-05-10T04:06:03;0.47;;;0.47;;
53835;SDS011;39737;43.334;21.936;2023-05-10T04:08:51;2.08;;;1.83;;
53835;SDS011;39737;43.334;21.936;2023-05-10T04:11:40;2.28;;;2.08;;
53835;SDS011;39737;43.334;21.936;2023-05-10T04:14:25;0.30;;;0.30;;
53835;SDS011;39737;43.334;21.936;2023-05-10T04:17:11;2.55;;;1.80;;
53835;SDS011;39737;43.334;21.936;2023-05-10T04:20:00;1.95;;;1.85;;
53835;SDS011;39737;43.334;21.936;2023-05-10T04:22:50;2.60;;;1.85;;
53835;SDS011;39737;43.334;21.936;2023-05-10T04:25:38;2.22;;;1.88;;
53835;SDS011;39737;43.334;21.936;2023-05-10T04:28:24;0.47;;;0.47;;
53835;SDS011;39737;43.334;21.936;2023-05-10T04:31:10;0.47;;;0.47;;
53835;SDS011;39737;43.334;21.936;2023-05-10T04:34:00;3.38;;;2.10;;
53835;SDS011;39737;43.334;21.936;2023-05-10T04:36:49;0.40;;;0.40;;
53835;SDS011;39737;43.334;21.936;2023-05-10T04:39:37;2.05;;;1.85;;
53835;SDS011;39737;43.334;21.936;2023-05-10T04:42:26;2.65;;;1.80;;
53835;SDS011;39737;43.334;21.936;2023-05-10T04:45:12;2.10;;;1.90;;
53835;SDS011;39737;43.334;21.936;2023-05-10T04:48:00;3.08;;;1.77;;
53835;SDS011;39737;43.334;21.936;2023-05-10T04:50:46;2.08;;;1.88;;
53835;SDS011;39737;43.334;21.936;2023-05-10T04:53:32;0.50;;;0.50;;
53835;SDS011;39737;43.334;21.936;2023-05-10T04:56:21;0.43;;;0.43;;
53835;SDS011;39737;43.334;21.936;2023-05-10T04:59:07;1.88;;;1.67;;
53835;SDS011;39737;43.334;21.936;2023-05-10T05:01:54;2.67;;;1.70;;
53835;SDS011;39737;43.334;21.936;2023-05-10T05:04:40;0.43;;;0.43;;
53835;SDS011;39737;43.334;21.936;2023-05-10T05:07:28;0.30;;;0.30;;
53835;SDS011;39737;43.334;21.936;2023-05-10T05:10:16;2.33;;;2.13;;
53835;SDS011;39737;43.334;21.936;2023-05-10T05:13:04;0.30;;;0.30;;
53835;SDS011;39737;43.334;21.936;2023-05-10T05:15:54;3.08;;;1.60;;
53835;SDS011;39737;43.334;21.936;2023-05-10T05:18:40;1.20;;;1.10;;
53835;SDS011;39737;43.334;21.936;2023-05-10T05:21:26;0.55;;;0.50;;
53835;SDS011;39737;43.334;21.936;2023-05-10T05:24:13;2.67;;;1.75;;
53835;SDS011;39737;43.334;21.936;2023-05-10T05:26:59;1.50;;;1.38;;
53835;SDS011;39737;43.334;21.936;2023-05-10T05:29:45;2.90;;;2.00;;
53835;SDS011;39737;43.334;21.936;2023-05-10T05:32:31;2.55;;;1.90;;
53835;SDS011;39737;43.334;21.936;2023-05-10T05:35:17;4.80;;;2.13;;
53835;SDS011;39737;43.334;21.936;2023-05-10T05:38:03;2.63;;;2.00;;
53835;SDS011;39737;43.334;21.936;2023-05-10T05:40:49;0.45;;;0.45;;
53835;SDS011;39737;43.334;21.936;2023-05-10T05:43:54;0.38;;;0.38;;
53835;SDS011;39737;43.334;21.936;2023-05-10T05:46:40;5.00;;;2.28;;
53835;SDS011;39737;43.334;21.936;2023-05-10T05:49:27;0.40;;;0.40;;
53835;SDS011;39737;43.334;21.936;2023-05-10T05:52:13;4.45;;;3.00;;
53835;SDS011;39737;43.334;21.936;2023-05-10T05:54:59;3.15;;;2.22;;
53835;SDS011;39737;43.334;21.936;2023-05-10T05:57:45;0.60;;;0.60;;
53835;SDS011;39737;43.334;21.936;2023-05-10T06:00:31;3.97;;;2.42;;
53835;SDS011;39737;43.334;21.936;2023-05-10T06:03:18;2.55;;;2.33;;
53835;SDS011;39737;43.334;21.936;2023-05-10T06:06:04;3.28;;;1.95;;
53835;SDS011;39737;43.334;21.936;2023-05-10T06:08:50;0.30;;;0.30;;
53835;SDS011;39737;43.334;21.936;2023-05-10T06:11:37;1.85;;;1.58;;
53835;SDS011;39737;43.334;21.936;2023-05-10T06:14:23;7.50;;;3.78;;
53835;SDS011;39737;43.334;21.936;2023-05-10T06:17:09;0.50;;;0.50;;
53835;SDS011;39737;43.334;21.936;2023-05-10T06:19:55;5.78;;;2.35;;
53835;SDS011;39737;43.334;21.936;2023-05-10T06:22:41;1.42;;;1.33;;
53835;SDS011;39737;43.334;21.936;2023-05-10T06:25:28;1.00;;;0.73;;
53835;SDS011;39737;43.334;21.936;2023-05-10T06:28:14;3.42;;;2.20;;
53835;SDS011;39737;43.334;21.936;2023-05-10T06:31:00;1.88;;;0.65;;
53835;SDS011;39737;43.334;21.936;2023-05-10T06:33:46;0.40;;;0.40;;
53835;SDS011;39737;43.334;21.936;2023-05-10T06:36:32;0.52;;;0.52;;
53835;SDS011;39737;43.334;21.936;2023-05-10T06:39:18;0.50;;;0.50;;
53835;SDS011;39737;43.334;21.936;2023-05-10T06:42:04;4.93;;;2.28;;
53835;SDS011;39737;43.334;21.936;2023-05-10T06:44:52;3.42;;;2.20;;
53835;SDS011;39737;43.334;21.936;2023-05-10T06:47:40;3.65;;;2.55;;
53835;SDS011;39737;43.334;21.936;2023-05-10T06:50:26;0.50;;;0.50;;
53835;SDS011;39737;43.334;21.936;2023-05-10T06:53:12;0.45;;;0.45;;
53835;SDS011;39737;43.334;21.936;2023-05-10T06:55:59;0.50;;;0.50;;
53835;SDS011;39737;43.334;21.936;2023-05-10T06:58:45;0.40;;;0.40;;
53835;SDS011;39737;43.334;21.936;2023-05-10T07:01:31;0.82;;;0.82;;
53835;SDS011;39737;43.334;21.936;2023-05-10T07:04:17;4.30;;;2.70;;
53835;SDS011;39737;43.334;21.936;2023-05-10T07:07:04;0.50;;;0.50;;
53835;SDS011;39737;43.334;21.936;2023-05-10T07:09:50;9.18;;;1.98;;
53835;SDS011;39737;43.334;21.936;2023-05-10T07:12:37;1.55;;;0.98;;
53835;SDS011;39737;43.334;21.936;2023-05-10T07:15:24;0.50;;;0.50;;
53835;SDS011;39737;43.334;21.936;2023-05-10T07:18:10;0.47;;;0.47;;
53835;SDS011;39737;43.334;21.936;2023-05-10T07:20:56;5.82;;;3.13;;
53835;SDS011;39737;43.334;21.936;2023-05-10T07:23:43;4.75;;;3.20;;
53835;SDS011;39737;43.334;21.936;2023-05-10T07:26:29;0.60;;;0.60;;
53835;SDS011;39737;43.334;21.936;2023-05-10T07:29:16;3.85;;;2.47;;
53835;SDS011;39737;43.334;21.936;2023-05-10T07:32:02;3.58;;;2.72;;
53835;SDS011;39737;43.334;21.936;2023-05-10T07:34:48;0.70;;;0.70;;
53835;SDS011;39737;43.334;21.936;2023-05-10T07:37:34;0.57;;;0.50;;
53835;SDS011;39737;43.334;21.936;2023-05-10T07:40:20;0.40;;;0.40;;
53835;SDS011;39737;43.334;21.936;2023-05-10T07:43:06;4.47;;;2.40;;
53835;SDS011;39737;43.334;21.936;2023-05-10T07:45:53;3.13;;;1.75;;
53835;SDS011;39737;43.334;21.936;2023-05-10T07:48:59;0.40;;;0.40;;
53835;SDS011;39737;43.334;21.936;2023-05-10T07:51:45;0.55;;;0.55;;
53835;SDS011;39737;43.334;21.936;2023-05-10T07:54:31;6.82;;;2.72;;
53835;SDS011;39737;43.334;21.936;2023-05-10T07:57:17;6.63;;;1.25;;
53835;SDS011;39737;43.334;21.936;2023-05-10T08:00:06;3.05;;;0.75;;
53835;SDS011;39737;43.334;21.936;2023-05-10T08:02:59;2.78;;;2.13;;
53835;SDS011;39737;43.334;21.936;2023-05-10T08:05:45;3.38;;;2.60;;
53835;SDS011;39737;43.334;21.936;2023-05-10T08:08:32;0.50;;;0.50;;
53835;SDS011;39737;43.334;21.936;2023-05-10T08:11:18;4.03;;;2.33;;
53835;SDS011;39737;43.334;21.936;2023-05-10T08:14:04;0.50;;;0.50;;
53835;SDS011;39737;43.334;21.936;2023-05-10T08:16:50;3.70;;;2.60;;
53835;SDS011;39737;43.334;21.936;2023-05-10T08:19:36;4.18;;;2.97;;
53835;SDS011;39737;43.334;21.936;2023-05-10T08:22:24;3.47;;;2.40;;
53835;SDS011;39737;43.334;21.936;2023-05-10T08:25:10;0.75;;;0.75;;
53835;SDS011;39737;43.334;21.936;2023-05-10T08:27:56;2.65;;;2.03;;
53835;SDS011;39737;43.334;21.936;2023-05-10T08:30:43;5.22;;;2.75;;
53835;SDS011;39737;43.334;21.936;2023-05-10T08:33:29;0.50;;;0.50;;
53835;SDS011;39737;43.334;21.936;2023-05-10T08:36:15;6.85;;;2.92;;
53835;SDS011;39737;43.334;21.936;2023-05-10T08:39:05;13.68;;;3.47;;
53835;SDS011;39737;43.334;21.936;2023-05-10T08:42:01;5.28;;;2.50;;
53835;SDS011;39737;43.334;21.936;2023-05-10T08:44:48;3.17;;;2.50;;
53835;SDS011;39737;43.334;21.936;2023-05-10T08:47:35;3.60;;;2.47;;
53835;SDS011;39737;43.334;21.936;2023-05-10T08:50:22;6.75;;;3.10;;
53835;SDS011;39737;43.334;21.936;2023-05-10T08:53:12;3.53;;;2.63;;
53835;SDS011;39737;43.334;21.936;2023-05-10T08:55:58;6.47;;;2.65;;
53835;SDS011;39737;43.334;21.936;2023-05-10T08:58:44;5.70;;;2.83;;
53835;SDS011;39737;43.334;21.936;2023-05-10T09:01:31;4.15;;;2.90;;
53835;SDS011;39737;43.334;21.936;2023-05-10T09:04:17;1.40;;;1.30;;
53835;SDS011;39737;43.334;21.936;2023-05-10T09:07:04;3.90;;;2.45;;
53835;SDS011;39737;43.334;21.936;2023-05-10T09:09:50;9.02;;;3.30;;
53835;SDS011;39737;43.334;21.936;2023-05-10T09:12:36;3.15;;;2.45;;
53835;SDS011;39737;43.334;21.936;2023-05-10T09:15:22;5.35;;;3.10;;
53835;SDS011;39737;43.334;21.936;2023-05-10T09:18:11;6.18;;;3.45;;
53835;SDS011;39737;43.334;21.936;2023-05-10T09:20:58;8.25;;;3.22;;
53835;SDS011;39737;43.334;21.936;2023-05-10T09:23:45;4.78;;;3.03;;
53835;SDS011;39737;43.334;21.936;2023-05-10T09:26:34;6.05;;;3.03;;
53835;SDS011;39737;43.334;21.936;2023-05-10T09:29:22;4.57;;;3.10;;
53835;SDS011;39737;43.334;21.936;2023-05-10T09:32:08;0.75;;;0.75;;
53835;SDS011;39737;43.334;21.936;2023-05-10T09:34:54;4.18;;;2.70;;
53835;SDS011;39737;43.334;21.936;2023-05-10T09:37:41;3.90;;;2.50;;
53835;SDS011;39737;43.334;21.936;2023-05-10T09:40:27;1.98;;;1.30;;
53835;SDS011;39737;43.334;21.936;2023-05-10T09:43:20;4.20;;;2.75;;
53835;SDS011;39737;43.334;21.936;2023-05-10T09:46:08;4.88;;;2.92;;
53835;SDS011;39737;43.334;21.936;2023-05-10T09:48:54;2.75;;;2.47;;
53835;SDS011;39737;43.334;21.936;2023-05-10T09:51:43;12.10;;;3.15;;
53835;SDS011;39737;43.334;21.936;2023-05-10T09:54:32;0.30;;;0.30;;
53835;SDS011;39737;43.334;21.936;2023-05-10T09:57:22;1.52;;;1.48;;
53835;SDS011;39737;43.334;21.936;2023-05-10T10:00:18;3.53;;;2.30;;
53835;SDS011;39737;43.334;21.936;2023-05-10T10:03:06;3.33;;;1.65;;
53835;SDS011;39737;43.334;21.936;2023-05-10T10:05:58;4.40;;;2.47;;
53835;SDS011;39737;43.334;21.936;2023-05-10T10:08:44;2.30;;;2.10;;
53835;SDS011;39737;43.334;21.936;2023-05-10T10:11:30;4.80;;;2.50;;
53835;SDS011;39737;43.334;21.936;2023-05-10T10:14:18;2.97;;;2.30;;
53835;SDS011;39737;43.334;21.936;2023-05-10T10:17:04;3.30;;;2.03;;
53835;SDS011;39737;43.334;21.936;2023-05-10T10:19:54;2.15;;;1.92;;
53835;SDS011;39737;43.334;21.936;2023-05-10T10:22:41;3.25;;;1.95;;
53835;SDS011;39737;43.334;21.936;2023-05-10T10:25:27;1.77;;;1.58;;
53835;SDS011;39737;43.334;21.936;2023-05-10T10:31:13;4.38;;;1.95;;
53835;SDS011;39737;43.334;21.936;2023-05-10T10:36:48;2.17;;;1.83;;
53835;SDS011;39737;43.334;21.936;2023-05-10T10:39:40;5.95;;;2.22;;
53835;SDS011;39737;43.334;21.936;2023-05-10T10:43:47;2.45;;;2.00;;
53835;SDS011;39737;43.334;21.936;2023-05-10T11:17:30;4.18;;;2.30;;
53835;SDS011;39737;43.334;21.936;2023-05-10T11:20:24;4.38;;;1.90;;
53835;SDS011;39737;43.334;21.936;2023-05-10T11:23:29;3.47;;;2.28;;
53835;SDS011;39737;43.334;21.936;2023-05-10T11:26:17;2.50;;;1.90;;
53835;SDS011;39737;43.334;21.936;2023-05-10T11:32:50;4.10;;;2.42;;
53835;SDS011;39737;43.334;21.936;2023-05-10T11:35:49;4.10;;;2.35;;
53835;SDS011;39737;43.334;21.936;2023-05-10T11:39:15;2.72;;;2.38;;
53835;SDS011;39737;43.334;21.936;2023-05-10T11:45:58;3.88;;;2.65;;
53835;SDS011;39737;43.334;21.936;2023-05-10T11:48:44;9.18;;;2.20;;
53835;SDS011;39737;43.334;21.936;2023-05-10T11:51:38;8.95;;;3.53;;
53835;SDS011;39737;43.334;21.936;2023-05-10T11:59:03;4.63;;;3.15;;
53835;SDS011;39737;43.334;21.936;2023-05-10T12:01:50;4.78;;;3.03;;
53835;SDS011;39737;43.334;21.936;2023-05-10T12:05:12;8.40;;;2.53;;
53835;SDS011;39737;43.334;21.936;2023-05-10T12:45:11;4.20;;;2.60;;
53835;SDS011;39737;43.334;21.936;2023-05-10T12:48:46;4.03;;;2.85;;
53835;SDS011;39737;43.334;21.936;2023-05-10T12:52:10;6.15;;;3.00;;
53835;SDS011;39737;43.334;21.936;2023-05-10T12:54:56;4.38;;;2.38;;
53835;SDS011;39737;43.334;21.936;2023-05-10T12:57:47;5.13;;;2.85;;
53835;SDS011;39737;43.334;21.936;2023-05-10T13:00:53;5.28;;;2.72;;
53835;SDS011;39737;43.334;21.936;2023-05-10T13:03:50;5.80;;;3.20;;
53835;SDS011;39737;43.334;21.936;2023-05-10T13:06:41;4.05;;;2.67;;
53835;SDS011;39737;43.334;21.936;2023-05-10T13:09:28;6.95;;;2.75;;
53835;SDS011;39737;43.334;21.936;2023-05-10T13:12:18;4.38;;;2.97;;
53835;SDS011;39737;43.334;21.936;2023-05-10T13:15:04;3.95;;;2.75;;
53835;SDS011;39737;43.334;21.936;2023-05-10T13:17:51;4.70;;;3.00;;
53835;SDS011;39737;43.334;21.936;2023-05-10T13:20:47;8.20;;;2.92;;
53835;SDS011;39737;43.334;21.936;2023-05-10T13:23:55;8.43;;;3.80;;
53835;SDS011;39737;43.334;21.936;2023-05-10T13:26:46;9.02;;;2.80;;
53835;SDS011;39737;43.334;21.936;2023-05-10T13:32:53;5.72;;;2.65;;
53835;SDS011;39737;43.334;21.936;2023-05-10T13:40:15;8.20;;;3.20;;
53835;SDS011;39737;43.334;21.936;2023-05-10T13:43:29;4.88;;;3.10;;
53835;SDS011;39737;43.334;21.936;2023-05-10T13:49:51;7.30;;;3.10;;
53835;SDS011;39737;43.334;21.936;2023-05-10T13:52:51;3.72;;;2.45;;
53835;SDS011;39737;43.334;21.936;2023-05-10T13:55:40;4.65;;;2.72;;
53835;SDS011;39737;43.334;21.936;2023-05-10T13:58:39;6.05;;;3.15;;
53835;SDS011;39737;43.334;21.936;2023-05-10T14:01:36;3.30;;;2.33;;
53835;SDS011;39737;43.334;21.936;2023-05-10T14:04:31;8.15;;;2.85;;
53835;SDS011;39737;43.334;21.936;2023-05-10T14:07:40;4.50;;;3.30;;
53835;SDS011;39737;43.334;21.936;2023-05-10T14:10:55;5.05;;;3.20;;
53835;SDS011;39737;43.334;21.936;2023-05-10T14:13:48;5.97;;;4.05;;
53835;SDS011;39737;43.334;21.936;2023-05-10T14:17:58;7.60;;;2.97;;
53835;SDS011;39737;43.334;21.936;2023-05-10T14:20:48;5.00;;;2.83;;
53835;SDS011;39737;43.334;21.936;2023-05-10T14:30:50;8.35;;;3.20;;
53835;SDS011;39737;43.334;21.936;2023-05-10T14:33:46;4.13;;;3.22;;
53835;SDS011;39737;43.334;21.936;2023-05-10T14:36:42;5.25;;;3.95;;
53835;SDS011;39737;43.334;21.936;2023-05-10T14:39:43;8.65;;;3.33;;
53835;SDS011;39737;43.334;21.936;2023-05-10T14:47:03;13.13;;;4.37;;
53835;SDS011;39737;43.334;21.936;2023-05-10T14:49:49;9.65;;;4.95;;
53835;SDS011;39737;43.334;21.936;2023-05-10T14:52:39;6.97;;;4.32;;
53835;SDS011;39737;43.334;21.936;2023-05-10T14:55:25;8.25;;;3.90;;
53835;SDS011;39737;43.334;21.936;2023-05-10T14:58:21;9.30;;;4.43;;
53835;SDS011;39737;43.334;21.936;2023-05-10T15:01:07;11.95;;;4.20;;
53835;SDS011;39737;43.334;21.936;2023-05-10T15:03:53;15.45;;;4.55;;
53835;SDS011;39737;43.334;21.936;2023-05-10T15:06:46;15.18;;;3.78;;
53835;SDS011;39737;43.334;21.936;2023-05-10T15:09:34;5.90;;;3.92;;
53835;SDS011;39737;43.334;21.936;2023-05-10T15:12:21;8.45;;;4.95;;
53835;SDS011;39737;43.334;21.936;2023-05-10T15:15:09;5.05;;;3.13;;
53835;SDS011;39737;43.334;21.936;2023-05-10T15:17:56;6.78;;;3.40;;
53835;SDS011;39737;43.334;21.936;2023-05-10T15:20:42;7.15;;;4.00;;
53835;SDS011;39737;43.334;21.936;2023-05-10T15:23:28;15.45;;;4.45;;
53835;SDS011;39737;43.334;21.936;2023-05-10T15:26:15;5.30;;;3.10;;
53835;SDS011;39737;43.334;21.936;2023-05-10T15:29:02;7.85;;;3.55;;
53835;SDS011;39737;43.334;21.936;2023-05-10T15:31:51;7.13;;;3.70;;
53835;SDS011;39737;43.334;21.936;2023-05-10T15:34:39;9.85;;;4.20;;
53835;SDS011;39737;43.334;21.936;2023-05-10T15:37:25;10.75;;;4.35;;
53835;SDS011;39737;43.334;21.936;2023-05-10T15:40:11;11.35;;;4.43;;
53835;SDS011;39737;43.334;21.936;2023-05-10T15:42:59;7.45;;;4.95;;
53835;SDS011;39737;43.334;21.936;2023-05-10T15:46:03;7.63;;;3.70;;
53835;SDS011;39737;43.334;21.936;2023-05-10T15:58:25;5.70;;;3.95;;
53835;SDS011;39737;43.334;21.936;2023-05-10T16:01:19;7.43;;;3.92;;
53835;SDS011;39737;43.334;21.936;2023-05-10T16:04:07;6.60;;;4.00;;
53835;SDS011;39737;43.334;21.936;2023-05-10T16:06:56;6.20;;;3.83;;
53835;SDS011;39737;43.334;21.936;2023-05-10T16:09:42;11.55;;;4.68;;
53835;SDS011;39737;43.334;21.936;2023-05-10T16:12:32;8.88;;;3.78;;
53835;SDS011;39737;43.334;21.936;2023-05-10T16:15:18;5.43;;;3.97;;
53835;SDS011;39737;43.334;21.936;2023-05-10T16:18:10;8.45;;;3.58;;
53835;SDS011;39737;43.334;21.936;2023-05-10T16:20:57;9.25;;;4.15;;
53835;SDS011;39737;43.334;21.936;2023-05-10T16:23:44;9.00;;;4.32;;
53835;SDS011;39737;43.334;21.936;2023-05-10T16:26:33;7.78;;;4.60;;
53835;SDS011;39737;43.334;21.936;2023-05-10T16:29:32;7.13;;;3.72;;
53835;SDS011;39737;43.334;21.936;2023-05-10T16:32:18;6.60;;;3.60;;
53835;SDS011;39737;43.334;21.936;2023-05-10T16:35:04;11.65;;;3.55;;
53835;SDS011;39737;43.334;21.936;2023-05-10T16:37:51;8.23;;;3.72;;
53835;SDS011;39737;43.334;21.936;2023-05-10T16:40:40;8.65;;;4.60;;
53835;SDS011;39737;43.334;21.936;2023-05-10T16:43:26;11.35;;;4.32;;
53835;SDS011;39737;43.334;21.936;2023-05-10T16:46:12;11.90;;;5.95;;
53835;SDS011;39737;43.334;21.936;2023-05-10T16:48:59;12.43;;;5.78;;
53835;SDS011;39737;43.334;21.936;2023-05-10T16:51:46;11.77;;;4.78;;
53835;SDS011;39737;43.334;21.936;2023-05-10T16:54:33;14.52;;;4.80;;
53835;SDS011;39737;43.334;21.936;2023-05-10T16:57:19;8.32;;;4.65;;
53835;SDS011;39737;43.334;21.936;2023-05-10T17:00:08;14.10;;;4.95;;
53835;SDS011;39737;43.334;21.936;2023-05-10T17:02:58;18.75;;;7.63;;
53835;SDS011;39737;43.334;21.936;2023-05-10T17:05:45;37.22;;;11.35;;
53835;SDS011;39737;43.334;21.936;2023-05-10T17:08:33;28.95;;;8.90;;
53835;SDS011;39737;43.334;21.936;2023-05-10T17:11:23;18.02;;;7.50;;
53835;SDS011;39737;43.334;21.936;2023-05-10T17:14:10;9.20;;;5.63;;
53835;SDS011;39737;43.334;21.936;2023-05-10T17:16:56;25.25;;;7.80;;
53835;SDS011;39737;43.334;21.936;2023-05-10T17:19:51;7.07;;;4.45;;
53835;SDS011;39737;43.334;21.936;2023-05-10T17:23:21;5.78;;;3.20;;
53835;SDS011;39737;43.334;21.936;2023-05-10T17:26:08;6.95;;;3.35;;
53835;SDS011;39737;43.334;21.936;2023-05-10T17:28:54;7.35;;;4.20;;
53835;SDS011;39737;43.334;21.936;2023-05-10T17:31:40;5.93;;;3.58;;
53835;SDS011;39737;43.334;21.936;2023-05-10T17:34:26;5.90;;;3.63;;
53835;SDS011;39737;43.334;21.936;2023-05-10T17:37:13;6.50;;;3.50;;
53835;SDS011;39737;43.334;21.936;2023-05-10T17:40:07;11.85;;;3.85;;
53835;SDS011;39737;43.334;21.936;2023-05-10T17:43:09;4.90;;;3.28;;
53835;SDS011;39737;43.334;21.936;2023-05-10T17:45:55;4.78;;;3.28;;
53835;SDS011;39737;43.334;21.936;2023-05-10T17:48:41;6.88;;;3.58;;
53835;SDS011;39737;43.334;21.936;2023-05-10T17:51:28;13.93;;;3.88;;
53835;SDS011;39737;43.334;21.936;2023-05-10T17:54:14;5.18;;;2.97;;
53835;SDS011;39737;43.334;21.936;2023-05-10T17:57:00;5.75;;;3.03;;
53835;SDS011;39737;43.334;21.936;2023-05-10T17:59:48;6.45;;;3.53;;
53835;SDS011;39737;43.334;21.936;2023-05-10T18:02:36;5.10;;;3.40;;
53835;SDS011;39737;43.334;21.936;2023-05-10T18:05:41;7.63;;;3.50;;
53835;SDS011;39737;43.334;21.936;2023-05-10T18:08:30;7.32;;;4.25;;
53835;SDS011;39737;43.334;21.936;2023-05-10T18:11:17;5.22;;;2.88;;
53835;SDS011;39737;43.334;21.936;2023-05-10T18:14:11;6.28;;;3.50;;
53835;SDS011;39737;43.334;21.936;2023-05-10T18:16:58;6.13;;;3.45;;
53835;SDS011;39737;43.334;21.936;2023-05-10T18:19:44;5.95;;;4.03;;
53835;SDS011;39737;43.334;21.936;2023-05-10T18:22:35;7.68;;;3.13;;
53835;SDS011;39737;43.334;21.936;2023-05-10T18:25:22;9.15;;;3.83;;
53835;SDS011;39737;43.334;21.936;2023-05-10T18:28:20;9.23;;;3.97;;
53835;SDS011;39737;43.334;21.936;2023-05-10T18:31:11;5.35;;;3.28;;
53835;SDS011;39737;43.334;21.936;2023-05-10T18:33:57;5.40;;;3.28;;
53835;SDS011;39737;43.334;21.936;2023-05-10T18:36:43;6.55;;;3.50;;
53835;SDS011;39737;43.334;21.936;2023-05-10T18:39:37;14.55;;;3.35;;
53835;SDS011;39737;43.334;21.936;2023-05-10T18:42:32;8.90;;;3.97;;
53835;SDS011;39737;43.334;21.936;2023-05-10T18:45:29;7.78;;;3.58;;
53835;SDS011;39737;43.334;21.936;2023-05-10T18:48:19;5.43;;;3.17;;
53835;SDS011;39737;43.334;21.936;2023-05-10T18:51:26;11.68;;;3.50;;
53835;SDS011;39737;43.334;21.936;2023-05-10T18:54:20;9.55;;;3.55;;
53835;SDS011;39737;43.334;21.936;2023-05-10T18:57:08;6.05;;;4.05;;
53835;SDS011;39737;43.334;21.936;2023-05-10T19:00:00;5.15;;;3.67;;
53835;SDS011;39737;43.334;21.936;2023-05-10T19:02:48;6.03;;;3.45;;